Skellefteå Airport

ESNS · Västerbotten, Schweden

METAR-Geschichte ESNS · Flughafen Skellefteå

Unten siehst du die METARs der letzten paar Tage. Wähle ein Jahr, um ältere METARs ab dem Jahr 2007 zu durchsuchen.

21. Juli 2024

Uhrzeit Code Wetter Temp. Sichtweite Wolkendecke Wind METAR/SPECI
23:20
V
15 °C 10 km+ 5.500 ft 290° 290° 3 kt METAR ESNS 212120Z AUTO 29003KT 9999 SCT041/// OVC055/// 15/15 Q1015
22:50
V
15 °C 10 km+ 4.300 ft 270° 270° 3 kt METAR ESNS 212050Z AUTO 27003KT 9999 BKN043/// OVC057/// 15/15 Q1015
22:20
V
15 °C 10 km+ - 270° 270° 1 kt METAR ESNS 212020Z AUTO 27001KT 9999 SCT059/// 15/15 Q1015
21:50
V
16 °C 10 km+ - 020° 020° 1 kt METAR ESNS 211950Z AUTO 02001KT 9999 FEW044/// 16/14 Q1015
21:20
V
17 °C 10 km+ - 040° 040° 2 kt METAR ESNS 211920Z AUTO 04002KT 9999 FEW064/// 17/13 Q1015
20:50
V
18 °C 10 km+ - 040° 040° 3 kt METAR ESNS 211850Z AUTO 04003KT 9999 SCT062/// 18/13 Q1015
20:20
V
18 °C 10 km+ - 060° 060° 4 kt METAR ESNS 211820Z AUTO 06004KT 020V080 9999 FEW062/// 18/13 Q1015
19:50
V
19 °C 10 km+ - 040° 040° 4 kt METAR ESNS 211750Z 04004KT 020V080 CAVOK 19/11 Q1015
19:20
V
19 °C 10 km+ - 040° 040° 5 kt METAR ESNS 211720Z 04005KT 010V080 CAVOK 19/12 Q1015
18:50
V
19 °C 10 km+ - 070° 070° 5 kt METAR ESNS 211650Z 07005KT 030V100 CAVOK 19/13 Q1015
18:20
V
20 °C 10 km+ - 070° 070° 7 kt METAR ESNS 211620Z 07007KT CAVOK 20/12 Q1015
17:50
V
20 °C 10 km+ - 030° 030° 5 kt METAR ESNS 211550Z 03005KT 350V060 CAVOK 20/12 Q1015
17:20
V
19 °C 10 km+ - 060° 060° 5 kt METAR ESNS 211520Z 06005KT 010V100 CAVOK 19/13 Q1015
16:50
V
19 °C 10 km+ - 080° 080° 7 kt METAR ESNS 211450Z 08007KT CAVOK 19/12 Q1015
16:20
V
19 °C 10 km+ - 080° 080° 9 kt METAR ESNS 211420Z 08009KT CAVOK 19/12 Q1015
15:50
V
20 °C 10 km+ - 060° 060° 7 kt METAR ESNS 211350Z 06007KT 030V110 CAVOK 20/13 Q1015
15:20
V
20 °C 10 km+ - 080° 080° 10 kt METAR ESNS 211320Z 08010KT CAVOK 20/13 Q1015
14:50
V
20 °C 10 km+ - 090° 090° 9 kt METAR ESNS 211250Z 09009KT CAVOK 20/13 Q1016
14:20
V
20 °C 10 km+ - 070° 070° 9 kt METAR ESNS 211220Z 07009KT 040V110 CAVOK 20/13 Q1016
13:50
V
21 °C 10 km+ - 080° 080° 8 kt METAR ESNS 211150Z 08008KT CAVOK 21/12 Q1016
13:20
V
20 °C 10 km+ - 070° 070° 8 kt METAR ESNS 211120Z 07008KT CAVOK 20/11 Q1016
12:50
V
21 °C 10 km+ - 100° 100° 10 kt METAR ESNS 211050Z 10010KT CAVOK 21/11 Q1016
12:20
V
21 °C 10 km+ - 100° 100° 9 kt METAR ESNS 211020Z 10009KT CAVOK 21/11 Q1016
11:50
V
21 °C 10 km+ - 080° 080° 9 kt METAR ESNS 210950Z AUTO 08009KT 9999 NCD 21/11 Q1016
11:20
V
21 °C 10 km+ - 080° 080° 7 kt METAR ESNS 210920Z AUTO 08007KT 050V120 9999 NCD 21/11 Q1016
10:50
V
21 °C 10 km+ - 090° 090° 8 kt METAR ESNS 210850Z AUTO 09008KT 050V110 9999 NCD 21/11 Q1016
10:20
V
20 °C 10 km+ - 080° 080° 8 kt METAR ESNS 210820Z AUTO 08008KT 9999 NCD 20/11 Q1016
09:50
V
20 °C 10 km+ - 070° 070° 6 kt METAR ESNS 210750Z AUTO 07006KT 040V100 9999 NCD 20/12 Q1016
09:20
V
20 °C 10 km+ - 080° 080° 7 kt METAR ESNS 210720Z AUTO 08007KT 9999 NCD 20/13 Q1016
08:50
V
20 °C 10 km+ - 060° 060° 5 kt METAR ESNS 210650Z AUTO 06005KT 020V110 9999 NCD 20/15 Q1016
08:20
V
19 °C 10 km+ - 050° 050° 5 kt METAR ESNS 210620Z AUTO 05005KT 020V080 9999 NCD 19/17 Q1016
07:50
V
19 °C 10 km+ - 070° 070° 4 kt METAR ESNS 210550Z AUTO 07004KT 040V100 9999 NCD 19/19 Q1016
07:20
V
18 °C 10 km+ - 060° 060° 5 kt METAR ESNS 210520Z AUTO 06005KT 020V090 9999 NCD 18/18 Q1016
06:50
V
18 °C 10 km+ - 040° 040° 5 kt METAR ESNS 210450Z AUTO 04005KT 360V070 9999 NCD 18/18 Q1016
06:20
V
18 °C 10 km+ - 020° 020° 3 kt METAR ESNS 210420Z AUTO 02003KT 360V060 9999 NCD 18/18 Q1016
05:50
V
17 °C 10 km+ - 340° 340° 3 kt METAR ESNS 210350Z AUTO 34003KT 9999 NCD 17/17 Q1016
05:20
V
16 °C 10 km+ - Var Var 2 kt METAR ESNS 210320Z AUTO VRB02KT 9999 NCD 16/16 Q1016
04:50
I
14 °C 2,6 km - Var Var 2 kt METAR ESNS 210250Z AUTO VRB02KT 2600 BR NCD 14/14 Q1016
04:20
L
13 °C 400 m - Var Var 2 kt METAR ESNS 210220Z AUTO VRB02KT 0400 R10/0900N R28/P2000N NCD 13/13 Q1016
03:50
L
13 °C 200 m - 290° 290° 2 kt METAR ESNS 210150Z AUTO 29002KT 0200 R10/0450N R28/P2000N BCFG NCD 13/13 Q1016
03:20
L
13 °C 200 m - Var Var 2 kt METAR ESNS 210120Z AUTO VRB02KT 0200 R10/0450N R28/1500N BCFG NCD 13/13 Q1016
02:50
L
13 °C 200 m - 320° 320° 2 kt METAR ESNS 210050Z AUTO 32002KT 0200 R10/1000N R28/0450N FG NCD 13/13 Q1016
02:20
L
13 °C 150 m - 360° 360° 0 kt METAR ESNS 210020Z AUTO 00000KT 0150 R10/P2000D R28/1000N FG NCD 13/13 Q1016
01:50
L
14 °C 200 m - 360° 360° 0 kt METAR ESNS 202350Z AUTO 00000KT 0200 R10/0700U R28/0750N BCFG NCD 14/14 Q1016
01:20
L
15 °C 700 m - 360° 360° 0 kt METAR ESNS 202320Z AUTO 00000KT 0700 R10/P2000N R28/P2000N BR NCD 15/15 Q1016
00:50
M
15 °C 5 km - Var Var 1 kt METAR ESNS 202250Z AUTO VRB01KT 5000 BR NCD 15/15 Q1016
00:20
V
16 °C 10 km+ - 350° 350° 4 kt METAR ESNS 202220Z AUTO 35004KT 9999 NCD 16/16 Q1016

20. Juli 2024

Uhrzeit Code Wetter Temp. Sichtweite Wolkendecke Wind METAR/SPECI
23:50
V
16 °C 10 km+ - 340° 340° 3 kt METAR ESNS 202150Z AUTO 34003KT 9999 FEW055/// 16/16 Q1016
23:20
V
16 °C 10 km+ 5.300 ft 300° 300° 2 kt METAR ESNS 202120Z AUTO 30002KT 9999 BKN053/// 16/16 Q1016
22:50
V
16 °C 10 km+ 4.900 ft 290° 290° 3 kt METAR ESNS 202050Z AUTO 29003KT 9999 OVC049/// 16/16 Q1016
22:20
V
16 °C 10 km+ 4.800 ft 310° 310° 2 kt METAR ESNS 202020Z AUTO 31002KT 9999 OVC048/// 16/16 Q1015
21:50
V
17 °C 10 km+ - 340° 340° 2 kt METAR ESNS 201950Z AUTO 34002KT 9999 FEW045/// 17/17 Q1015
21:20
V
18 °C 10 km+ - 350° 350° 2 kt METAR ESNS 201920Z AUTO 35002KT 9999 NCD 18/16 Q1015
20:50
V
18 °C 10 km+ - 320° 320° 3 kt METAR ESNS 201850Z AUTO 32003KT 9999 NCD 18/16 Q1015
20:20
V
18 °C 10 km+ - 360° 360° 3 kt METAR ESNS 201820Z AUTO 36003KT 310V030 9999 NCD 18/16 Q1015
19:50
V
18 °C 10 km+ - 020° 020° 4 kt METAR ESNS 201750Z AUTO 02004KT 330V050 9999 NCD 18/16 Q1015
19:20
V
18 °C 10 km+ - 020° 020° 5 kt METAR ESNS 201720Z AUTO 02005KT 350V050 9999 SCT015/// 18/16 Q1015
18:50
V
18 °C 10 km+ - 030° 030° 6 kt METAR ESNS 201650Z AUTO 03006KT 360V060 9999 FEW016/// 18/15 Q1015
18:20
V
19 °C 10 km+ - 020° 020° 5 kt METAR ESNS 201620Z AUTO 02005KT 340V060 9999 SCT015/// 19/15 Q1015
17:50
M
18 °C 10 km+ 1.700 ft 030° 030° 7 kt METAR ESNS 201550Z AUTO 03007KT 360V070 9999 OVC017/// 18/15 Q1015
17:20
M
18 °C 10 km+ 2.000 ft 030° 030° 8 kt METAR ESNS 201520Z AUTO 03008KT 9999 SCT014/// OVC020/// 18/16 Q1015
16:50
M
19 °C 10 km+ 2.400 ft 020° 020° 6 kt METAR ESNS 201450Z AUTO 02006KT 340V060 9999 SCT013/// BKN024/// 19/16 Q1015
16:20
M
19 °C 10 km+ 2.300 ft 020° 020° 6 kt METAR ESNS 201420Z AUTO 02006KT 350V080 9999 FEW013/// OVC023/// 19/16 Q1015
15:50
M
19 °C 10 km+ 2.400 ft 020° 020° 7 kt METAR ESNS 201350Z AUTO 02007KT 340V050 9999 FEW013/// OVC024/// 19/16 Q1015
15:20
M
18 °C 10 km+ 2.700 ft 040° 040° 8 kt METAR ESNS 201320Z AUTO 04008KT 9999 FEW014/// OVC027/// 18/18 Q1015
14:50
M
19 °C 10 km+ 1.900 ft 030° 030° 7 kt METAR ESNS 201250Z AUTO 03007KT 360V070 9999 SCT012/// BKN019/// OVC026/// 19/17 Q1015
14:20
M
18 °C 10 km+ 1.900 ft 030° 030° 6 kt METAR ESNS 201220Z AUTO 03006KT 350V050 9999 SCT012/// BKN019/// OVC024/// 18/18 Q1015
13:50
M
18 °C 10 km+ 2.300 ft 060° 060° 7 kt METAR ESNS 201150Z AUTO 06007KT 9999 FEW008/// OVC023/// 18/18 Q1015
13:20
I
18 °C 10 km+ 800 ft 060° 060° 7 kt METAR ESNS 201120Z AUTO 06007KT 9999 BKN008/// OVC011/// 18/18 Q1015
12:50
I
18 °C 10 km+ 800 ft 050° 050° 6 kt METAR ESNS 201050Z AUTO 05006KT 020V080 9999 BKN008/// OVC028/// 18/18 Q1015
12:20
I
18 °C 10 km+ 700 ft 040° 040° 6 kt METAR ESNS 201020Z AUTO 04006KT 9999 BKN007/// OVC010/// 18/18 Q1015
11:50
I
18 °C 10 km+ 600 ft 050° 050° 7 kt METAR ESNS 200950Z 05007KT 020V080 9999 BKN006 OVC021 18/18 Q1015
11:20
I
17 °C 10 km+ 500 ft 040° 040° 5 kt METAR ESNS 200920Z 04005KT 010V090 9999 BKN005 OVC020 17/17 Q1015
10:50
I
17 °C 10 km+ 500 ft 050° 050° 7 kt METAR ESNS 200850Z 05007KT 9999 -SHRA OVC005 17/17 Q1015
10:20
L
17 °C 10 km+ 400 ft 050° 050° 8 kt METAR ESNS 200820Z 05008KT 020V080 9999 -SHRA OVC004 17/17 Q1014
09:50
I
17 °C 10 km+ 500 ft 040° 040° 7 kt METAR ESNS 200750Z 04007KT 010V070 9999 OVC005 17/17 Q1014
09:20
I
17 °C 10 km+ 500 ft 030° 030° 6 kt METAR ESNS 200720Z 03006KT 9999 OVC005 17/17 Q1014
08:50
I
18 °C 10 km+ 500 ft 020° 020° 6 kt METAR ESNS 200650Z 02006KT 320V040 9999 OVC005 18/18 Q1014
08:20
I
18 °C 10 km+ 500 ft 360° 360° 6 kt METAR ESNS 200620Z 36006KT 320V030 9999 OVC005 18/18 Q1014
07:50
I
17 °C 10 km+ 500 ft 010° 010° 6 kt METAR ESNS 200550Z AUTO 01006KT 340V050 9999 OVC005/// 17/17 Q1014
07:20
I
17 °C 10 km+ 500 ft 020° 020° 5 kt METAR ESNS 200520Z AUTO 02005KT 360V070 9999 BKN005/// OVC007/// 17/17 Q1014
06:50
I
17 °C 10 km+ 500 ft 020° 020° 6 kt METAR ESNS 200450Z AUTO 02006KT 350V060 9999 OVC005/// 17/17 Q1013
06:20
I
17 °C 10 km+ 600 ft 010° 010° 5 kt METAR ESNS 200420Z AUTO 01005KT 350V050 9999 OVC006/// 17/17 Q1013
05:50
I
17 °C 10 km+ 600 ft 010° 010° 6 kt METAR ESNS 200350Z AUTO 01006KT 340V050 9999 OVC006/// 17/17 Q1013
05:20
I
17 °C 10 km+ 500 ft 360° 360° 6 kt METAR ESNS 200320Z AUTO 36006KT 340V040 9999 OVC005/// 17/17 Q1013
04:50
L
17 °C 10 km+ 400 ft 350° 350° 5 kt METAR ESNS 200250Z AUTO 35005KT 310V030 9999 BKN004/// BKN006/// OVC023/// 17/17 Q1013
04:20
I
17 °C 10 km+ 500 ft 350° 350° 5 kt METAR ESNS 200220Z AUTO 35005KT 320V030 9999 BKN005/// OVC007/// 17/17 Q1013
03:50
I
17 °C 10 km+ 600 ft 350° 350° 7 kt METAR ESNS 200150Z AUTO 35007KT 9999 BKN006/// OVC022/// 17/17 Q1013
03:20
I
17 °C 10 km+ 600 ft 360° 360° 7 kt METAR ESNS 200120Z AUTO 36007KT 330V030 9999 OVC006/// 17/17 Q1013
02:50
I
17 °C 10 km+ 600 ft 350° 350° 6 kt METAR ESNS 200050Z AUTO 35006KT 9999 BKN006/// OVC008/// 17/17 Q1013
02:20
I
17 °C 10 km+ 600 ft 340° 340° 7 kt METAR ESNS 200020Z AUTO 34007KT 9999 OVC006/// 17/17 Q1013
01:50
I
17 °C 10 km+ 500 ft 350° 350° 7 kt METAR ESNS 192350Z AUTO 35007KT 310V020 9999 OVC005/// 17/17 Q1012
01:20
I
17 °C 10 km+ 500 ft 350° 350° 6 kt METAR ESNS 192320Z AUTO 35006KT 320V020 9999 OVC005/// 17/17 Q1012
00:50
I
17 °C 10 km+ 600 ft 350° 350° 6 kt METAR ESNS 192250Z AUTO 35006KT 320V020 9999 BKN006/// BKN009/// OVC061/// 17/17 Q1012
00:20
I
17 °C 10 km+ 700 ft 010° 010° 6 kt METAR ESNS 192220Z AUTO 01006KT 320V050 9999 BKN007/// OVC027/// 17/17 Q1012

19. Juli 2024

Uhrzeit Code Wetter Temp. Sichtweite Wolkendecke Wind METAR/SPECI
23:50
M
17 °C 10 km+ 2.400 ft 350° 350° 7 kt METAR ESNS 192150Z AUTO 35007KT 310V030 9999 FEW010/// BKN024/// OVC042/// 17/17 Q1012
23:20
M
17 °C 10 km+ 2.000 ft 350° 350° 6 kt METAR ESNS 192120Z AUTO 35006KT 310V030 9999 FEW010/// BKN020/// OVC023/// 17/17 Q1012
22:50
M
17 °C 6 km 4.100 ft 360° 360° 5 kt METAR ESNS 192050Z AUTO 36005KT 320V040 6000 +RA VV041 17/17 Q1012
22:20
I
17 °C 10 km+ 500 ft 360° 360° 7 kt METAR ESNS 192020Z AUTO 36007KT 330V040 9999 -RA BKN005/// OVC007/// 17/17 Q1012 RERA
21:50
L
17 °C 8 km 400 ft 010° 010° 8 kt METAR ESNS 191950Z AUTO 01008KT 340V070 8000 RA BKN004/// OVC010/// 17/17 Q1012
21:20
L
17 °C 4,5 km 300 ft 360° 360° 7 kt METAR ESNS 191920Z AUTO 36007KT 330V040 4500 +RA BKN003/// OVC005/// 17/17 Q1011
20:50
L
17 °C 7 km 400 ft 360° 360° 7 kt METAR ESNS 191850Z AUTO 36007KT 7000 RA OVC004/// 17/17 Q1011 RESHRA
20:20
L
17 °C 10 km+ 400 ft 360° 360° 4 kt METAR ESNS 191820Z AUTO 36004KT 320V040 9999 +RA BKN004/// OVC006/// 17/17 Q1011
19:50
L
17 °C 10 km+ 400 ft 360° 360° 5 kt METAR ESNS 191750Z 36005KT 340V040 9999 -RA OVC004 17/17 Q1011
19:20
I
17 °C 10 km+ 500 ft 360° 360° 6 kt METAR ESNS 191720Z 36006KT 330V030 9999 -RA VCSH BKN005 17/17 Q1011
18:50
V
17 °C 10 km+ 4.600 ft 350° 350° 5 kt METAR ESNS 191650Z 35005KT 320V030 9999 -RA SCT009 SCT019CB BKN046 17/17 Q1011
18:20
V
18 °C 10 km+ 7.000 ft 300° 300° 5 kt METAR ESNS 191620Z 30005KT 270V350 9999 SHRA SCT015CB BKN070 18/18 Q1011
17:50
V
18 °C 10 km+ 5.000 ft 310° 310° 5 kt METAR ESNS 191550Z 31005KT 270V340 9999 -RA SCT030 BKN050 BKN090 18/18 Q1011
17:20
V
19 °C 10 km+ 5.500 ft 340° 340° 4 kt METAR ESNS 191520Z 34004KT 310V010 9999 -RA SCT009 BKN055 19/19 Q1011 RERA
16:50
I
18 °C 10 km+ 700 ft 360° 360° 4 kt METAR ESNS 191450Z 36004KT 320V030 9999 BKN007 BKN090 18/18 Q1011
16:20
I
18 °C 10 km+ 600 ft 010° 010° 5 kt METAR ESNS 191420Z 01005KT 340V050 9999 BKN006 OVC010 18/18 Q1011
15:50
L
17 °C 10 km+ 400 ft 020° 020° 5 kt METAR ESNS 191350Z 02005KT 350V050 9999 BKN004 OVC006 17/17 Q1011
15:20
I
17 °C 10 km+ 500 ft 020° 020° 5 kt METAR ESNS 191320Z 02005KT 340V050 9999 -RA BKN005 17/17 Q1011 RERA
14:50
L
17 °C 10 km+ 400 ft 020° 020° 5 kt METAR ESNS 191250Z 02005KT 350V050 9999 -RA OVC004 17/17 Q1011
14:20
M
17 °C 9 km 1.200 ft 010° 010° 7 kt METAR ESNS 191220Z 01007KT 330V050 9000 RA SCT005 BKN012 OVC045 17/17 Q1011
13:50
V
19 °C 10 km+ 3.300 ft 010° 010° 9 kt METAR ESNS 191150Z 01009KT 9999 -SHRA SCT016CB BKN033 19/18 Q1011
13:20
V
21 °C 10 km+ 3.500 ft 020° 020° 9 kt METAR ESNS 191120Z 02009KT 340V060 9999 SCT019TCU BKN035 21/17 Q1011
12:50
M
22 °C 10 km+ 3.000 ft 330° 330° 4 kt METAR ESNS 191050Z 33004KT 290V050 9999 SCT023TCU BKN030 22/16 Q1011
12:20
M
20 °C 10 km+ 1.900 ft 360° 360° 4 kt METAR ESNS 191020Z 36004KT 320V060 9999 BKN019 20/18 Q1011
11:50
M
20 °C 10 km+ 1.900 ft 280° 280° 3 kt METAR ESNS 190950Z 28003KT 240V320 9999 FEW015 BKN019 20/18 Q1011
11:20
M
19 °C 10 km+ 1.400 ft 330° 330° 5 kt METAR ESNS 190920Z 33005KT 290V010 9999 BKN014 OVC019 19/18 Q1011
10:50
M
18 °C 10 km+ 1.100 ft 330° 330° 4 kt METAR ESNS 190850Z 33004KT 9999 FEW009 BKN011 OVC018 18/18 Q1011
10:20
M
18 °C 10 km+ 1.400 ft 360° 360° 5 kt METAR ESNS 190820Z 36005KT 340V040 9999 FEW008 SCT011 BKN014 18/18 Q1011
09:50
M
18 °C 10 km+ 1.200 ft 310° 310° 5 kt METAR ESNS 190750Z 31005KT 9999 BKN012 BKN018 18/18 Q1011
09:20
M
18 °C 10 km+ 1.400 ft Var Var 3 kt METAR ESNS 190720Z VRB03KT 9999 FEW010 BKN014 18/18 Q1011
08:50
M
18 °C 10 km+ 1.100 ft 020° 020° 3 kt METAR ESNS 190650Z 02003KT 340V060 9999 BKN011 18/18 Q1011
08:20
I
17 °C 10 km+ 800 ft 010° 010° 5 kt METAR ESNS 190620Z 01005KT 330V040 9999 BKN008 17/17 Q1011
07:50
I
17 °C 10 km+ 800 ft Var Var 3 kt METAR ESNS 190550Z AUTO VRB03KT 9999 BKN008/// OVC010/// 17/17 Q1011
Eine Änderung melden